Time;durP1;ratioP1;P1;durP2;ratioP2;P2;SDS_P1;SDS_P2;PMS_P1;PMS_P2;Temp;Humidity;BMP_temperature;BMP_pressure;BME280_temperature;BME280_humidity;BME280_pressure;Samples;Min_cycle;Max_cycle;Signal;HPM_P1;HPM_P2
2022/05/17 00:04:56;;;;;;;24.37;21.77;;;;;;;16.00;64.58;100958.81;10442387;28;20615;-86
2022/05/17 00:09:59;;;;;;;25.23;21.75;;;;;;;15.43;66.02;100954.03;10459423;28;20249;-86
2022/05/17 00:15:02;;;;;;;28.30;22.00;;;;;;;14.85;68.54;100957.25;10459137;28;20184;-86
2022/05/17 00:20:05;;;;;;;26.70;21.95;;;;;;;15.28;66.13;100953.91;10458638;28;20265;-86
2022/05/17 00:25:08;;;;;;;26.88;22.15;;;;;;;15.38;65.83;100945.75;10458202;28;20223;-86
2022/05/17 00:30:11;;;;;;;28.25;21.33;;;;;;;14.96;67.16;100953.63;10441657;28;20535;-86
2022/05/17 00:35:14;;;;;;;29.37;23.23;;;;;;;15.33;66.65;100957.34;10458001;28;20207;-85
2022/05/17 00:40:17;;;;;;;24.92;21.13;;;;;;;14.93;66.71;100945.78;10441255;28;20199;-85
2022/05/17 00:45:20;;;;;;;29.43;21.77;;;;;;;14.52;68.22;100945.84;10457566;28;20231;-86
2022/05/17 00:50:35;;;;;;;26.83;21.07;;;;;;;14.71;67.47;100947.00;10441295;28;20466;-86
2022/05/17 00:55:42;;;;;;;24.67;19.53;;;;;;;14.39;68.11;100950.63;10456495;28;20180;-86
2022/05/17 01:00:53;;;;;;;26.57;21.43;;;;;;;14.48;68.33;100948.53;10440750;28;20200;-86
2022/05/17 01:05:55;;;;;;;24.07;21.47;;;;;;;14.71;66.70;100947.00;10456801;28;20211;-86
2022/05/17 01:10:57;;;;;;;25.50;20.95;;;;;;;14.63;68.08;100947.06;10457022;28;20188;-86
2022/05/17 01:16:00;;;;;;;26.00;21.13;;;;;;;15.30;65.27;100935.31;10456345;28;20184;-86
2022/05/17 01:21:02;;;;;;;25.48;21.05;;;;;;;14.54;66.80;100943.50;10456512;28;20257;-86
2022/05/17 01:26:11;;;;;;;29.03;20.77;;;;;;;14.46;67.04;100933.88;10439018;28;20294;-85
2022/05/17 01:31:13;;;;;;;25.17;21.00;;;;;;;13.54;71.30;100947.19;10422932;28;20192;-86
2022/05/17 01:36:21;;;;;;;22.57;19.97;;;;;;;14.36;66.35;100940.78;10438766;28;20249;-87
2022/05/17 01:41:25;;;;;;;28.97;22.33;;;;;;;14.21;70.42;100937.75;10455951;28;20199;-85
2022/05/17 01:46:27;;;;;;;29.40;23.77;;;;;;;14.00;70.26;100949.94;10454770;28;20292;-85
2022/05/17 01:51:30;;;;;;;28.40;22.47;;;;;;;14.52;67.74;100938.16;10455393;28;20253;-86
2022/05/17 01:56:33;;;;;;;26.47;21.63;;;;;;;14.56;66.03;100927.78;10438356;28;20184;-87
2022/05/17 02:01:36;;;;;;;25.23;21.20;;;;;;;14.41;65.90;100942.59;10456528;28;20213;-87
2022/05/17 02:06:38;;;;;;;27.10;20.52;;;;;;;14.09;66.90;100941.34;10460649;28;20289;-86
2022/05/17 02:11:40;;;;;;;28.37;21.93;;;;;;;14.50;66.47;100932.00;10460416;28;20188;-85
2022/05/17 02:16:43;;;;;;;26.67;21.43;;;;;;;14.53;66.39;100934.16;10460485;28;20234;-86
2022/05/17 02:21:46;;;;;;;23.33;19.10;;;;;;;14.15;66.44;100939.16;10460878;28;20212;-86
2022/05/17 02:26:49;;;;;;;24.23;19.33;;;;;;;14.66;64.85;100932.19;10443481;28;20278;-86
2022/05/17 02:31:52;;;;;;;23.40;18.13;;;;;;;13.99;66.72;100936.94;10460720;28;20196;-85
2022/05/17 02:36:54;;;;;;;25.40;19.40;;;;;;;14.19;66.33;100940.13;10443330;28;20200;-85
2022/05/17 02:41:57;;;;;;;22.17;17.67;;;;;;;13.89;66.56;100945.81;10459339;28;20184;-85
2022/05/17 02:47:00;;;;;;;22.10;18.87;;;;;;;13.96;65.93;100942.41;10459500;28;20234;-86
2022/05/17 02:52:02;;;;;;;23.40;19.57;;;;;;;13.60;67.52;100954.31;10459506;28;20188;-85
2022/05/17 02:57:06;;;;;;;25.80;19.73;;;;;;;14.20;65.90;100950.28;10458958;28;20192;-86
2022/05/17 03:02:08;;;;;;;28.57;20.73;;;;;;;14.53;65.15;100942.66;10441868;28;20192;-85
2022/05/17 03:07:10;;;;;;;24.37;18.13;;;;;;;14.27;64.80;100953.41;10452861;28;20224;-85
2022/05/17 03:12:12;;;;;;;21.63;18.30;;;;;;;15.03;61.16;100955.84;10474301;28;20192;-84
2022/05/17 03:17:16;;;;;;;21.53;19.03;;;;;;;14.24;63.87;100960.59;10453253;28;20188;-85
2022/05/17 03:22:19;;;;;;;21.93;19.33;;;;;;;13.76;65.82;100966.72;10468624;28;20192;-85
2022/05/17 03:27:21;;;;;;;21.57;17.80;;;;;;;14.14;64.70;100968.66;10394574;28;20286;-85
2022/05/17 03:32:23;;;;;;;21.83;18.00;;;;;;;14.47;63.73;100969.56;10394235;28;20192;-85
2022/05/17 03:37:25;;;;;;;19.57;16.70;;;;;;;14.00;65.36;100978.28;10410165;28;20605;-84
2022/05/17 03:42:28;;;;;;;19.23;15.90;;;;;;;13.95;65.77;100975.59;10410944;28;20193;-85
2022/05/17 03:47:30;;;;;;;19.93;16.10;;;;;;;14.17;64.56;100980.16;10411686;28;20212;-86
2022/05/17 03:52:32;;;;;;;19.73;16.97;;;;;;;14.48;63.68;100976.91;10400929;28;20196;-87
2022/05/17 03:57:35;;;;;;;19.87;16.67;;;;;;;14.39;65.67;100976.16;10417390;28;20197;-87
2022/05/17 04:02:37;;;;;;;26.93;16.47;;;;;;;14.78;64.12;100978.50;10417116;28;20215;-85
2022/05/17 04:07:39;;;;;;;20.03;15.13;;;;;;;14.51;64.64;100992.41;10426329;28;20216;-86
2022/05/17 04:12:42;;;;;;;20.27;15.60;;;;;;;14.70;64.96;100995.56;10420838;28;20589;-84
2022/05/17 04:17:44;;;;;;;21.73;14.53;;;;;;;15.04;63.97;100983.06;10457569;28;20208;-86
2022/05/17 04:22:49;;;;;;;17.85;14.70;;;;;;;14.97;64.85;100994.19;10449396;28;20227;-86
2022/05/17 04:27:52;;;;;;;20.63;13.47;;;;;;;14.76;66.53;100989.34;10457384;28;20212;-86
2022/05/17 04:32:55;;;;;;;19.43;14.60;;;;;;;14.51;66.72;101000.91;10429020;28;20192;-87
2022/05/17 04:37:57;;;;;;;16.10;14.40;;;;;;;14.94;65.31;100989.19;10465087;28;20484;-85
2022/05/17 04:42:59;;;;;;;20.70;13.50;;;;;;;15.18;65.07;100986.44;10486166;28;20213;-84
2022/05/17 04:48:02;;;;;;;18.67;11.80;;;;;;;15.43;64.59;100990.13;10522484;28;20229;-86
2022/05/17 04:53:05;;;;;;;18.07;11.27;;;;;;;15.32;65.30;101001.13;10505252;28;20261;-85
2022/05/17 04:58:07;;;;;;;17.90;10.93;;;;;;;15.29;65.23;100993.31;10505350;28;20522;-85
2022/05/17 05:03:43;;;;;;;14.73;10.80;;;;;;;15.58;64.47;101002.84;10504094;28;20183;-87
2022/05/17 05:09:07;;;;;;;18.13;10.73;;;;;;;15.64;65.19;101005.09;10507222;28;20219;-85
2022/05/17 05:14:19;;;;;;;13.37;9.47;;;;;;;15.76;64.64;101004.28;10489534;28;20237;-85
2022/05/17 05:19:21;;;;;;;16.73;9.73;;;;;;;15.91;63.81;101012.09;10463269;28;20200;-85
2022/05/17 05:24:23;;;;;;;15.03;9.33;;;;;;;15.76;64.86;101009.97;10445977;28;20693;-85
2022/05/17 05:29:27;;;;;;;17.27;9.37;;;;;;;16.23;62.84;101006.66;10462407;28;20777;-85
2022/05/17 05:34:29;;;;;;;13.93;9.57;;;;;;;16.29;63.43;101017.41;10445391;28;20261;-86
2022/05/17 05:39:32;;;;;;;16.63;10.40;;;;;;;16.17;64.01;101012.53;10446172;28;20539;-85
2022/05/17 05:44:35;;;;;;;15.13;9.27;;;;;;;16.71;62.03;101011.38;10446056;28;20199;-86
2022/05/17 05:49:39;;;;;;;17.30;10.33;;;;;;;16.76;62.62;101002.59;10445300;28;20325;-86
2022/05/17 05:54:41;;;;;;;21.33;9.43;;;;;;;16.80;62.31;100997.81;10445943;28;20246;-86
2022/05/17 05:59:43;;;;;;;12.90;9.10;;;;;;;17.38;61.15;101004.78;10461652;28;20188;-85
2022/05/17 06:04:46;;;;;;;18.35;10.18;;;;;;;17.36;61.28;101018.56;10445035;28;20195;-85
2022/05/17 06:09:48;;;;;;;13.32;9.63;;;;;;;17.45;60.91;101007.81;10428812;28;20220;-86
2022/05/17 06:14:50;;;;;;;14.57;8.75;;;;;;;17.62;60.97;101018.06;10461356;28;20462;-86
2022/05/17 06:19:53;;;;;;;12.77;6.97;;;;;;;17.35;59.68;101019.75;10444919;28;20204;-85
2022/05/17 06:24:55;;;;;;;14.93;7.50;;;;;;;17.83;60.17;101021.50;10460511;28;20682;-86
2022/05/17 06:29:58;;;;;;;11.93;7.63;;;;;;;17.65;60.72;101025.06;10428750;28;20215;-85
2022/05/17 06:35:00;;;;;;;16.45;6.70;;;;;;;17.86;58.59;101026.44;10460569;28;20188;-84
2022/05/17 06:40:07;;;;;;;11.45;4.50;;;;;;;17.10;55.89;101021.09;10460235;28;20211;-84
2022/05/17 06:45:11;;;;;;;8.00;4.43;;;;;;;17.09;55.08;101036.53;10460019;28;20188;-84
2022/05/17 06:50:13;;;;;;;9.68;3.78;;;;;;;17.93;55.14;101029.47;10459775;28;20208;-83
2022/05/17 06:55:15;;;;;;;14.95;4.00;;;;;;;17.79;56.73;101031.13;10442632;28;20543;-84
2022/05/17 07:00:19;;;;;;;9.85;3.33;;;;;;;16.89;54.34;101041.22;10443137;28;20184;-84
2022/05/17 07:05:25;;;;;;;6.15;3.55;;;;;;;17.82;55.69;101036.13;10443558;28;20195;-84
2022/05/17 07:15:49;;;;;;;10.52;4.05;;;;;;;18.77;52.75;101036.75;10476248;28;20196;-82
2022/05/17 07:20:52;;;;;;;8.07;3.83;;;;;;;18.87;52.11;101030.44;10458907;28;20204;-83
2022/05/17 07:25:55;;;;;;;7.60;3.28;;;;;;;18.88;50.39;101030.06;10458938;28;20220;-83
2022/05/17 07:30:57;;;;;;;9.38;3.80;;;;;;;19.03;50.61;101037.75;10442914;28;20223;-83
2022/05/17 07:36:01;;;;;;;9.88;3.58;;;;;;;19.67;49.03;101038.19;10458497;28;20210;-83
2022/05/17 07:41:04;;;;;;;8.82;3.78;;;;;;;19.63;49.83;101032.41;10442052;28;20226;-83
2022/05/17 07:46:06;;;;;;;9.02;3.65;;;;;;;18.82;50.41;101036.44;10425975;28;20192;-84
2022/05/17 07:51:08;;;;;;;11.07;4.65;;;;;;;19.84;48.78;101031.13;10458413;28;20215;-84
2022/05/17 07:56:15;;;;;;;9.77;3.78;;;;;;;19.68;50.47;101040.66;10458439;28;20246;-83
2022/05/17 08:01:17;;;;;;;7.88;3.13;;;;;;;18.59;49.50;101044.94;10441719;28;20238;-84
2022/05/17 08:06:19;;;;;;;6.35;2.65;;;;;;;18.61;48.00;101059.66;10459650;28;20226;-84
2022/05/17 08:11:23;;;;;;;8.63;3.55;;;;;;;18.70;51.18;101060.28;10449378;28;20212;-84
2022/05/17 08:16:25;;;;;;;12.88;3.63;;;;;;;18.97;50.95;101064.16;10449333;28;20200;-83
2022/05/17 08:21:28;;;;;;;6.93;3.42;;;;;;;19.33;51.65;101062.84;10449304;28;20200;-84
2022/05/17 08:37:12;;;;;;;7.85;3.00;;;;;;;19.16;48.76;101069.84;10452122;28;20625;-83
2022/05/17 08:42:25;;;;;;;8.88;3.20;;;;;;;19.77;46.77;101076.78;10448517;28;20470;-84
2022/05/17 08:47:50;;;;;;;9.00;3.08;;;;;;;19.49;45.46;101075.00;10432359;28;20216;-84
2022/05/17 08:53:15;;;;;;;8.75;3.15;;;;;;;19.27;48.37;101085.19;10436546;28;20192;-84
2022/05/17 08:58:21;;;;;;;10.23;2.78;;;;;;;18.99;46.80;101091.16;10448026;28;20245;-83
2022/05/17 09:03:53;;;;;;;5.50;2.80;;;;;;;19.44;45.02;101083.88;10431440;28;20215;-84
2022/05/17 09:09:03;;;;;;;10.93;2.38;;;;;;;19.26;45.44;101085.59;10447358;28;20219;-84
2022/05/17 09:14:16;;;;;;;5.95;2.47;;;;;;;19.63;44.03;101089.63;10447165;28;20196;-84
2022/05/17 09:19:22;;;;;;;6.47;2.88;;;;;;;19.08;44.19;101090.09;10447286;28;20254;-84
2022/05/17 09:24:30;;;;;;;6.97;2.25;;;;;;;19.48;46.11;101087.66;10463229;28;20246;-84
2022/05/17 09:29:39;;;;;;;4.85;3.05;;;;;;;20.28;43.45;101083.84;10447202;28;20266;-84
2022/05/17 09:34:44;;;;;;;6.18;3.20;;;;;;;20.19;40.62;101083.25;10462716;28;20476;-84
2022/05/17 09:39:52;;;;;;;10.43;3.00;;;;;;;20.75;43.40;101088.22;10446354;28;20245;-84
2022/05/17 09:44:56;;;;;;;9.82;3.38;;;;;;;20.83;41.09;101090.00;10462562;28;20188;-85
2022/05/17 09:55:25;;;;;;;10.98;3.22;;;;;;;20.87;41.58;101085.16;10462572;28;20188;-84
2022/05/17 10:00:42;;;;;;;8.93;3.13;;;;;;;19.60;43.87;101095.25;10445366;28;20596;-84
2022/05/17 10:06:36;;;;;;;10.02;4.70;;;;;;;20.66;44.75;101097.09;10445535;28;20191;-84
2022/05/17 10:11:52;;;;;;;10.65;4.05;;;;;;;20.97;41.41;101084.47;10360191;28;20216;-85
2022/05/17 10:17:01;;;;;;;9.30;3.22;;;;;;;21.20;41.35;101086.41;10429211;28;20249;-85
2022/05/17 10:22:08;;;;;;;8.90;3.95;;;;;;;20.67;42.32;101086.47;10444652;28;20282;-84
2022/05/17 10:27:17;;;;;;;6.70;3.85;;;;;;;20.97;42.54;101084.47;10444419;28;20228;-84
2022/05/17 10:32:43;;;;;;;8.98;3.72;;;;;;;21.28;42.56;101083.22;10443255;28;20200;-84
2022/05/17 10:37:57;;;;;;;11.82;3.42;;;;;;;21.10;39.76;101076.44;10461275;28;20238;-83
2022/05/17 10:43:01;;;;;;;9.82;3.25;;;;;;;20.99;43.15;101084.91;10444007;28;20196;-85
2022/05/17 10:48:20;;;;;;;7.72;3.53;;;;;;;20.62;41.52;101092.53;10459893;28;20337;-85
2022/05/17 10:53:39;;;;;;;10.20;3.67;;;;;;;21.61;42.12;101084.44;10443785;28;20191;-84
2022/05/17 10:59:10;;;;;;;9.05;3.75;;;;;;;20.98;43.10;101073.81;10443535;28;20191;-84
2022/05/17 11:04:22;;;;;;;10.38;4.55;;;;;;;21.29;43.78;101082.00;10407452;28;20204;-84
2022/05/17 11:09:46;;;;;;;11.00;4.65;;;;;;;21.58;40.54;101068.03;10443335;28;20615;-84
2022/05/17 11:14:52;;;;;;;4.85;2.50;;;;;;;21.44;39.49;101065.81;10460069;28;20184;-85
2022/05/17 11:20:14;;;;;;;10.73;2.75;;;;;;;21.55;39.68;101052.41;10442782;28;20281;-85
2022/05/17 11:25:48;;;;;;;6.60;3.47;;;;;;;21.45;40.17;101058.88;10442201;28;20289;-85
2022/05/17 11:31:00;;;;;;;9.02;3.28;;;;;;;20.88;40.63;101045.84;10422717;28;20258;-84
2022/05/17 11:36:06;;;;;;;6.15;2.90;;;;;;;22.19;39.03;101044.41;10458361;28;20234;-85
2022/05/17 11:41:34;;;;;;;6.97;3.25;;;;;;;21.50;39.05;101044.97;10445672;28;20605;-85
2022/05/17 11:47:00;;;;;;;9.75;3.05;;;;;;;22.10;38.13;101041.06;10458273;28;20213;-84
2022/05/17 11:52:02;;;;;;;7.13;3.13;;;;;;;21.02;42.89;101041.13;10450217;28;20215;-85
2022/05/17 11:57:08;;;;;;;8.95;3.08;;;;;;;21.60;41.77;101036.91;10450154;28;20223;-85
2022/05/17 12:02:13;;;;;;;5.85;3.05;;;;;;;20.80;41.04;101036.34;10433970;28;20210;-84
2022/05/17 12:07:28;;;;;;;6.75;3.38;;;;;;;20.79;42.33;101028.97;10449963;28;20199;-84
2022/05/17 12:12:46;;;;;;;9.30;3.20;;;;;;;21.23;41.05;101029.09;10449553;28;20629;-84
2022/05/17 12:18:23;;;;;;;9.07;3.50;;;;;;;21.27;43.06;101029.13;10466897;28;20204;-85
2022/05/17 12:23:38;;;;;;;8.32;3.33;;;;;;;21.26;40.57;101027.47;10448818;28;20216;-84
2022/05/17 12:28:46;;;;;;;10.93;2.85;;;;;;;21.30;41.81;101028.34;10465333;28;20257;-85
2022/05/17 12:33:49;;;;;;;8.88;3.35;;;;;;;21.70;41.89;101025.53;10464973;28;20206;-85
2022/05/17 12:44:21;;;;;;;8.85;2.95;;;;;;;20.83;44.29;101038.41;10464483;28;20180;-85
2022/05/17 12:49:28;;;;;;;9.15;3.00;;;;;;;21.20;43.73;101034.81;10432210;28;20215;-85
2022/05/17 12:54:32;;;;;;;6.07;3.38;;;;;;;21.36;41.58;101029.63;10447406;28;20585;-84
2022/05/17 12:59:41;;;;;;;6.25;2.90;;;;;;;21.12;42.18;101028.13;10433535;28;20191;-85
2022/05/17 13:04:43;;;;;;;10.73;3.50;;;;;;;21.60;41.46;101031.97;10431347;28;20654;-85
2022/05/17 13:09:55;;;;;;;12.32;3.72;;;;;;;21.73;40.34;101024.72;10463712;28;20204;-85
2022/05/17 13:14:58;;;;;;;6.72;3.20;;;;;;;21.98;41.95;101013.50;10463637;28;20203;-85
2022/05/17 13:20:11;;;;;;;7.70;3.00;;;;;;;22.47;40.52;101013.00;10464079;28;20289;-85
2022/05/17 13:25:19;;;;;;;8.38;3.13;;;;;;;22.09;41.73;101007.84;10463239;28;20228;-85
2022/05/17 13:30:24;;;;;;;6.18;2.65;;;;;;;21.61;41.83;100993.44;10446557;28;20220;-84
2022/05/17 13:35:32;;;;;;;4.88;2.15;;;;;;;21.81;43.00;100985.44;10463766;28;20188;-85
2022/05/17 13:40:43;;;;;;;9.77;3.08;;;;;;;21.94;40.51;100980.22;10462710;28;20469;-84
2022/05/17 13:46:06;;;;;;;7.40;2.72;;;;;;;21.73;41.49;100978.00;10445942;28;20207;-84
2022/05/17 13:51:11;;;;;;;9.60;3.10;;;;;;;21.51;42.15;100968.38;10445831;28;20681;-84
2022/05/17 13:56:14;;;;;;;7.25;2.40;;;;;;;22.10;40.53;100964.38;10445647;28;20195;-84
2022/05/17 14:01:35;;;;;;;8.20;2.95;;;;;;;21.97;40.44;100960.19;10445815;28;20210;-85
2022/05/17 14:06:58;;;;;;;16.20;9.10;;;;;;;21.03;43.13;100956.81;10460614;28;20253;-85
2022/05/17 14:12:21;;;;;;;8.90;2.92;;;;;;;20.73;41.52;100948.22;10461510;28;20208;-85
2022/05/17 14:17:27;;;;;;;10.25;2.45;;;;;;;21.37;41.45;100953.84;10427781;28;20270;-84
2022/05/17 14:22:30;;;;;;;7.18;2.95;;;;;;;21.32;41.60;100951.38;10444278;28;20480;-83
2022/05/17 14:27:33;;;;;;;13.60;7.45;;;;;;;20.37;45.01;100949.00;10444001;28;20500;-84
2022/05/17 14:32:35;;;;;;;6.88;2.80;;;;;;;20.83;43.23;100945.91;10461014;28;20207;-87
2022/05/17 14:37:37;;;;;;;5.95;2.83;;;;;;;21.05;43.92;100947.81;10461540;28;20522;-84
2022/05/17 14:42:40;;;;;;;14.38;7.70;;;;;;;21.36;42.14;100946.47;10462633;28;20188;-85
2022/05/17 14:47:52;;;;;;;11.50;4.97;;;;;;;21.33;42.78;100941.56;10471288;28;20195;-84
2022/05/17 14:52:56;;;;;;;7.85;2.67;;;;;;;20.57;45.25;100938.19;10436409;28;20212;-85
2022/05/17 14:57:58;;;;;;;5.40;2.53;;;;;;;21.30;43.30;100936.59;10465885;28;20199;-86
2022/05/17 15:03:04;;;;;;;6.78;2.78;;;;;;;21.21;44.12;100927.50;10501659;28;20245;-87
2022/05/17 15:08:09;;;;;;;7.22;3.15;;;;;;;20.92;43.87;100934.97;10484209;28;20187;-85
2022/05/17 15:13:11;;;;;;;9.10;4.07;;;;;;;21.09;43.37;100925.72;10491952;28;20212;-85
2022/05/17 15:18:20;;;;;;;8.07;3.25;;;;;;;21.12;42.65;100917.16;10458568;28;20266;-86
2022/05/17 15:23:35;;;;;;;9.18;2.17;;;;;;;21.27;43.29;100917.31;10452511;28;20247;-86
2022/05/17 15:28:38;;;;;;;10.15;3.13;;;;;;;21.60;42.43;100917.22;10447910;28;20203;-85
2022/05/17 15:33:42;;;;;;;9.20;2.90;;;;;;;21.21;42.51;100913.19;10417420;28;20188;-87
2022/05/17 15:38:44;;;;;;;8.20;3.72;;;;;;;21.84;41.96;100910.03;10401577;28;20494;-87
2022/05/17 15:43:46;;;;;;;9.70;3.75;;;;;;;20.81;43.02;100906.22;10417370;28;20184;-85
2022/05/17 15:54:20;;;;;;;8.05;3.35;;;;;;;22.30;41.24;100898.00;10439239;28;20207;-88
2022/05/17 15:59:22;;;;;;;6.75;2.63;;;;;;;22.01;40.65;100892.13;10430027;28;20218;-88
2022/05/17 16:09:45;;;;;;;5.90;2.40;;;;;;;22.39;40.11;100882.06;10453070;28;20267;-89
2022/05/17 16:14:48;;;;;;;8.02;2.63;;;;;;;22.71;39.12;100884.25;10451694;28;20261;-89
2022/05/17 16:19:51;;;;;;;7.50;2.60;;;;;;;23.04;38.81;100881.03;10452120;28;20211;-89
2022/05/17 16:24:54;;;;;;;4.28;1.90;;;;;;;22.10;38.97;100883.16;10451809;28;20639;-90
2022/05/17 16:29:56;;;;;;;4.03;2.15;;;;;;;22.50;39.05;100879.25;10456045;28;20289;-89
2022/05/17 16:34:59;;;;;;;4.90;1.80;;;;;;;21.56;41.10;100876.22;10441906;28;20635;-87
2022/05/17 16:40:03;;;;;;;11.27;2.40;;;;;;;21.90;39.65;100867.41;10458168;28;20192;-87
2022/05/17 16:45:06;;;;;;;7.57;2.20;;;;;;;21.43;40.48;100869.97;10458290;28;20265;-87
2022/05/17 16:50:22;;;;;;;5.32;2.10;;;;;;;22.01;40.05;100862.59;10489465;28;20235;-89
2022/05/17 16:55:25;;;;;;;6.90;2.10;;;;;;;21.53;40.52;100856.94;10482692;28;20260;-90
2022/05/17 17:00:29;;;;;;;6.22;2.38;;;;;;;21.65;40.26;100850.03;10499726;28;20213;-87
2022/05/17 17:05:34;;;;;;;3.75;1.90;;;;;;;21.67;40.12;100856.22;10482681;28;20236;-84
2022/05/17 17:10:37;;;;;;;6.32;2.13;;;;;;;21.96;41.28;100848.59;10481952;28;20256;-85
2022/05/17 17:15:39;;;;;;;5.85;2.28;;;;;;;21.63;40.33;100853.31;10481921;28;20187;-87
2022/05/17 17:20:42;;;;;;;7.85;2.33;;;;;;;21.40;41.44;100852.72;10497826;28;20249;-84
2022/05/17 17:25:45;;;;;;;3.40;2.05;;;;;;;21.24;41.80;100852.16;10497086;28;20247;-84
2022/05/17 17:30:49;;;;;;;7.03;2.60;;;;;;;21.60;41.88;100850.44;10481333;28;20243;-86
2022/05/17 17:41:15;;;;;;;4.03;2.55;;;;;;;22.06;41.96;100830.63;10462530;28;20194;-89
2022/05/17 17:46:17;;;;;;;8.57;2.85;;;;;;;21.91;42.42;100828.88;10496050;28;20195;-85
2022/05/17 17:51:20;;;;;;;11.02;3.10;;;;;;;21.83;42.61;100830.91;10479855;28;20542;-83
2022/05/17 17:56:28;;;;;;;8.73;2.72;;;;;;;21.90;42.79;100832.97;10446110;28;20196;-85
2022/05/17 18:01:31;;;;;;;9.20;3.30;;;;;;;21.97;42.68;100833.88;10445369;28;20485;-84
2022/05/17 18:06:35;;;;;;;6.40;2.60;;;;;;;21.67;43.42;100842.69;10438211;28;20188;-84
2022/05/17 18:11:37;;;;;;;8.43;3.60;;;;;;;21.62;44.24;100845.94;10457474;28;20212;-85
2022/05/17 18:16:45;;;;;;;7.05;2.92;;;;;;;21.85;44.13;100848.56;10443455;28;20249;-85
2022/05/17 18:21:48;;;;;;;7.03;2.88;;;;;;;21.75;43.80;100838.63;10460602;28;20215;-84
2022/05/17 18:26:52;;;;;;;6.78;2.72;;;;;;;21.80;43.50;100840.31;10444260;28;20250;-85
2022/05/17 18:31:57;;;;;;;6.95;2.60;;;;;;;21.45;45.00;100843.78;10467753;28;20261;-86
2022/05/17 18:37:01;;;;;;;6.63;3.13;;;;;;;21.45;44.82;100835.16;10444873;28;20506;-86
2022/05/17 18:42:03;;;;;;;8.95;3.05;;;;;;;21.52;44.54;100835.22;10460224;28;20238;-85
2022/05/17 18:47:09;;;;;;;5.60;3.35;;;;;;;21.58;44.68;100836.50;10433644;28;20245;-86
2022/05/17 18:52:24;;;;;;;8.52;3.05;;;;;;;21.48;44.71;100840.91;10485431;28;20219;-87
2022/05/17 18:57:27;;;;;;;10.63;3.50;;;;;;;21.27;45.25;100851.38;10503482;28;20179;-85
2022/05/17 19:02:29;;;;;;;5.43;3.00;;;;;;;21.33;45.40;100849.78;10487755;28;20187;-86
2022/05/17 19:18:14;;;;;;;5.60;3.90;;;;;;;21.19;46.04;100861.13;10517225;28;20218;-85
2022/05/17 19:23:17;;;;;;;8.63;3.30;;;;;;;21.11;46.07;100861.06;10483631;28;20273;-86
2022/05/17 19:28:20;;;;;;;6.32;3.58;;;;;;;21.02;46.91;100863.44;10484116;28;20195;-84
2022/05/17 19:33:29;;;;;;;11.00;6.93;;;;;;;21.42;45.78;100870.38;10484717;28;20677;-85
2022/05/17 19:43:52;;;;;;;10.50;3.83;;;;;;;20.99;46.57;100864.22;10570725;28;20182;-85
2022/05/17 19:48:54;;;;;;;9.98;4.25;;;;;;;21.09;46.84;100863.50;10544418;28;20202;-85
2022/05/17 19:53:56;;;;;;;6.80;3.80;;;;;;;21.14;46.94;100860.28;10509950;28;20264;-86
2022/05/17 19:58:59;;;;;;;8.95;3.85;;;;;;;21.28;46.90;100855.88;10508160;28;20243;-86
2022/05/17 20:04:02;;;;;;;7.32;3.85;;;;;;;21.14;47.03;100860.28;10531260;28;20186;-85
2022/05/17 20:09:04;;;;;;;12.57;4.78;;;;;;;20.89;47.80;100864.94;10533773;28;20244;-86
2022/05/17 20:14:08;;;;;;;8.15;5.05;;;;;;;21.02;47.64;100874.91;10533724;28;20214;-86
2022/05/17 20:19:10;;;;;;;13.52;4.68;;;;;;;20.71;49.06;100876.19;10551027;28;20229;-85
2022/05/17 20:24:13;;;;;;;8.35;4.07;;;;;;;21.00;48.09;100880.19;10516575;28;20222;-85
2022/05/17 20:29:18;;;;;;;9.13;4.55;;;;;;;20.97;47.84;100872.38;10516449;28;20190;-84
2022/05/17 20:34:21;;;;;;;8.20;4.82;;;;;;;20.71;49.12;100869.63;10532385;28;20210;-84
2022/05/17 20:39:26;;;;;;;10.23;4.35;;;;;;;21.00;48.46;100865.03;10515954;28;20545;-85
2022/05/17 20:44:28;;;;;;;8.98;4.97;;;;;;;21.20;47.48;100863.63;10532339;28;20517;-85
2022/05/17 20:49:30;;;;;;;9.25;5.15;;;;;;;20.20;50.43;100855.09;10515480;28;20240;-86
2022/05/17 20:54:32;;;;;;;8.27;4.00;;;;;;;20.41;49.57;100859.06;10514954;28;20218;-86
2022/05/17 20:59:40;;;;;;;11.32;4.65;;;;;;;20.33;49.59;100865.09;10515024;28;20541;-84
2022/05/17 21:04:46;;;;;;;8.05;4.65;;;;;;;19.82;51.56;100861.91;10516191;28;20183;-85
2022/05/17 21:09:49;;;;;;;7.95;4.28;;;;;;;19.48;52.27;100864.66;10515235;28;20194;-85
2022/05/17 21:14:51;;;;;;;8.15;4.30;;;;;;;19.87;51.44;100864.44;10513657;28;20178;-85
2022/05/17 21:19:53;;;;;;;6.45;4.18;;;;;;;19.82;51.53;100867.63;10546299;28;20516;-86
2022/05/17 21:24:57;;;;;;;7.93;4.40;;;;;;;19.72;51.46;100861.38;10529681;28;20496;-86
2022/05/17 21:30:12;;;;;;;8.07;4.38;;;;;;;19.86;51.35;100863.63;10529717;28;20483;-85
2022/05/17 21:35:19;;;;;;;7.65;3.70;;;;;;;19.88;51.21;100866.09;10513027;28;20502;-84
2022/05/17 21:40:22;;;;;;;8.35;4.45;;;;;;;20.02;50.55;100854.84;10529503;28;20186;-85
2022/05/17 21:45:24;;;;;;;5.47;3.70;;;;;;;19.99;50.75;100855.63;10512647;28;20182;-85
2022/05/17 21:50:29;;;;;;;7.78;3.60;;;;;;;20.13;50.43;100861.53;10546671;28;20598;-85
2022/05/17 21:55:32;;;;;;;7.47;3.90;;;;;;;19.89;51.28;100851.41;10512242;28;20190;-86
2022/05/17 22:00:39;;;;;;;6.28;3.63;;;;;;;19.98;51.59;100859.69;10516590;28;20240;-85
2022/05/17 22:05:43;;;;;;;7.05;4.95;;;;;;;20.11;50.92;100855.38;10518763;28;20220;-86
2022/05/17 22:16:11;;;;;;;10.85;5.00;;;;;;;20.05;51.17;100854.88;10513330;28;20190;-86
2022/05/17 22:21:14;;;;;;;5.80;3.55;;;;;;;19.63;51.66;100855.13;10544411;28;20244;-85
2022/05/17 22:26:17;;;;;;;8.40;4.57;;;;;;;19.57;52.59;100850.94;10526467;28;20219;-85
2022/05/17 22:31:20;;;;;;;9.75;4.68;;;;;;;19.20;54.41;100855.59;10527131;28;20471;-85
2022/05/17 22:36:23;;;;;;;11.70;4.93;;;;;;;19.46;53.37;100861.34;10510337;28;20198;-84
2022/05/17 22:41:25;;;;;;;5.00;4.20;;;;;;;19.25;53.77;100866.72;10526568;28;20481;-85
2022/05/17 22:51:48;;;;;;;7.07;4.28;;;;;;;19.21;53.12;100860.94;10544238;28;20595;-85
2022/05/17 22:56:52;;;;;;;5.55;4.25;;;;;;;19.21;53.50;100871.53;10509654;28;20187;-85
2022/05/17 23:01:54;;;;;;;8.13;4.80;;;;;;;18.80;54.52;100862.59;10509530;28;20220;-85
2022/05/17 23:06:56;;;;;;;9.10;4.47;;;;;;;18.79;54.81;100860.94;10525802;28;20198;-86
2022/05/17 23:11:59;;;;;;;8.35;4.75;;;;;;;19.01;53.95;100853.63;10525693;28;20202;-85
2022/05/17 23:17:01;;;;;;;9.73;5.97;;;;;;;19.08;54.05;100847.22;10542350;28;20456;-85
2022/05/17 23:22:03;;;;;;;9.13;5.38;;;;;;;18.61;55.54;100857.78;10509138;28;20518;-84
2022/05/17 23:32:27;;;;;;;10.48;5.95;;;;;;;18.49;56.05;100857.91;10543658;28;20198;-84
2022/05/17 23:37:29;;;;;;;13.25;5.10;;;;;;;18.65;55.69;100857.81;10525252;28;20567;-86
2022/05/17 23:42:32;;;;;;;6.13;4.03;;;;;;;18.80;54.25;100848.31;10524806;28;20194;-86
2022/05/17 23:47:35;;;;;;;2.70;2.50;;;;;;;18.73;50.98;100855.94;10525430;28;20715;-85
2022/05/17 23:52:37;;;;;;;3.85;2.58;;;;;;;18.76;50.02;100855.16;10508138;28;20268;-87
2022/05/17 23:57:40;;;;;;;4.05;2.42;;;;;;;19.46;47.55;100849.91;10508552;28;20209;-85
